sensor_id;sensor_type;location;lat;lon;timestamp;P1;durP1;ratioP1;P2;durP2;ratioP2
2257;SDS011;1136;51.574;7.706;2022-08-16T00:02:29;5.53;;;5.13;;
2257;SDS011;1136;51.574;7.706;2022-08-16T00:04:55;5.37;;;4.90;;
2257;SDS011;1136;51.574;7.706;2022-08-16T00:07:25;5.50;;;5.20;;
2257;SDS011;1136;51.574;7.706;2022-08-16T00:09:55;5.70;;;5.20;;
2257;SDS011;1136;51.574;7.706;2022-08-16T00:12:28;5.40;;;4.83;;
2257;SDS011;1136;51.574;7.706;2022-08-16T00:14:57;5.77;;;5.23;;
2257;SDS011;1136;51.574;7.706;2022-08-16T00:17:26;7.67;;;6.00;;
2257;SDS011;1136;51.574;7.706;2022-08-16T00:19:53;5.03;;;4.63;;
2257;SDS011;1136;51.574;7.706;2022-08-16T00:22:23;4.97;;;4.67;;
2257;SDS011;1136;51.574;7.706;2022-08-16T00:24:53;5.50;;;5.07;;
2257;SDS011;1136;51.574;7.706;2022-08-16T00:27:20;5.83;;;5.10;;
2257;SDS011;1136;51.574;7.706;2022-08-16T00:29:48;5.73;;;5.33;;
2257;SDS011;1136;51.574;7.706;2022-08-16T00:32:36;4.90;;;4.60;;
2257;SDS011;1136;51.574;7.706;2022-08-16T00:35:05;5.47;;;5.00;;
2257;SDS011;1136;51.574;7.706;2022-08-16T00:37:41;5.63;;;5.13;;
2257;SDS011;1136;51.574;7.706;2022-08-16T00:40:43;5.47;;;5.07;;
2257;SDS011;1136;51.574;7.706;2022-08-16T00:43:23;5.40;;;4.90;;
2257;SDS011;1136;51.574;7.706;2022-08-16T00:49:00;5.97;;;5.50;;
2257;SDS011;1136;51.574;7.706;2022-08-16T00:51:29;5.30;;;4.90;;
2257;SDS011;1136;51.574;7.706;2022-08-16T00:53:56;5.83;;;4.87;;
2257;SDS011;1136;51.574;7.706;2022-08-16T00:56:26;5.33;;;4.83;;
2257;SDS011;1136;51.574;7.706;2022-08-16T00:59:14;5.77;;;5.37;;
2257;SDS011;1136;51.574;7.706;2022-08-16T01:01:43;7.20;;;5.30;;
2257;SDS011;1136;51.574;7.706;2022-08-16T01:04:10;5.50;;;5.10;;
2257;SDS011;1136;51.574;7.706;2022-08-16T01:06:56;6.00;;;5.47;;
2257;SDS011;1136;51.574;7.706;2022-08-16T01:09:29;6.60;;;5.80;;
2257;SDS011;1136;51.574;7.706;2022-08-16T01:12:03;5.37;;;5.00;;
2257;SDS011;1136;51.574;7.706;2022-08-16T01:14:36;6.57;;;5.83;;
2257;SDS011;1136;51.574;7.706;2022-08-16T01:17:15;5.37;;;4.97;;
2257;SDS011;1136;51.574;7.706;2022-08-16T01:19:43;5.30;;;5.00;;
2257;SDS011;1136;51.574;7.706;2022-08-16T01:25:04;5.77;;;5.37;;
2257;SDS011;1136;51.574;7.706;2022-08-16T01:27:35;5.63;;;4.73;;
2257;SDS011;1136;51.574;7.706;2022-08-16T01:32:46;5.33;;;4.83;;
2257;SDS011;1136;51.574;7.706;2022-08-16T01:35:35;5.20;;;4.80;;
2257;SDS011;1136;51.574;7.706;2022-08-16T01:40:45;5.30;;;4.87;;
2257;SDS011;1136;51.574;7.706;2022-08-16T01:43:13;5.30;;;4.80;;
2257;SDS011;1136;51.574;7.706;2022-08-16T01:45:42;4.63;;;4.40;;
2257;SDS011;1136;51.574;7.706;2022-08-16T01:48:09;6.07;;;5.43;;
2257;SDS011;1136;51.574;7.706;2022-08-16T01:50:46;6.10;;;5.60;;
2257;SDS011;1136;51.574;7.706;2022-08-16T01:53:38;5.63;;;5.20;;
2257;SDS011;1136;51.574;7.706;2022-08-16T01:56:08;5.53;;;5.10;;
2257;SDS011;1136;51.574;7.706;2022-08-16T01:58:49;5.37;;;4.87;;
2257;SDS011;1136;51.574;7.706;2022-08-16T02:01:16;5.30;;;4.90;;
2257;SDS011;1136;51.574;7.706;2022-08-16T02:03:43;5.90;;;5.40;;
2257;SDS011;1136;51.574;7.706;2022-08-16T02:06:16;5.10;;;4.80;;
2257;SDS011;1136;51.574;7.706;2022-08-16T02:09:03;6.40;;;5.90;;
2257;SDS011;1136;51.574;7.706;2022-08-16T02:11:31;5.50;;;5.10;;
2257;SDS011;1136;51.574;7.706;2022-08-16T02:14:18;6.53;;;5.90;;
2257;SDS011;1136;51.574;7.706;2022-08-16T02:16:47;6.83;;;5.03;;
2257;SDS011;1136;51.574;7.706;2022-08-16T02:19:14;5.57;;;5.17;;
2257;SDS011;1136;51.574;7.706;2022-08-16T02:21:44;6.10;;;5.57;;
2257;SDS011;1136;51.574;7.706;2022-08-16T02:24:34;5.80;;;5.30;;
2257;SDS011;1136;51.574;7.706;2022-08-16T02:27:08;5.63;;;5.20;;
2257;SDS011;1136;51.574;7.706;2022-08-16T02:29:36;7.00;;;5.53;;
2257;SDS011;1136;51.574;7.706;2022-08-16T02:32:07;6.40;;;5.90;;
2257;SDS011;1136;51.574;7.706;2022-08-16T02:34:54;5.20;;;4.90;;
2257;SDS011;1136;51.574;7.706;2022-08-16T02:37:21;5.10;;;4.70;;
2257;SDS011;1136;51.574;7.706;2022-08-16T02:39:48;5.80;;;5.37;;
2257;SDS011;1136;51.574;7.706;2022-08-16T02:42:19;7.07;;;5.20;;
2257;SDS011;1136;51.574;7.706;2022-08-16T02:44:46;6.10;;;5.70;;
2257;SDS011;1136;51.574;7.706;2022-08-16T02:47:14;5.37;;;5.07;;
2257;SDS011;1136;51.574;7.706;2022-08-16T02:49:51;5.43;;;5.03;;
2257;SDS011;1136;51.574;7.706;2022-08-16T02:52:37;5.37;;;4.90;;
2257;SDS011;1136;51.574;7.706;2022-08-16T02:55:09;6.43;;;5.90;;
2257;SDS011;1136;51.574;7.706;2022-08-16T02:57:36;5.30;;;4.80;;
2257;SDS011;1136;51.574;7.706;2022-08-16T03:00:19;5.10;;;4.80;;
2257;SDS011;1136;51.574;7.706;2022-08-16T03:03:01;6.47;;;5.97;;
2257;SDS011;1136;51.574;7.706;2022-08-16T03:05:28;5.53;;;5.13;;
2257;SDS011;1136;51.574;7.706;2022-08-16T03:07:58;5.63;;;5.10;;
2257;SDS011;1136;51.574;7.706;2022-08-16T03:10:25;6.30;;;5.70;;
2257;SDS011;1136;51.574;7.706;2022-08-16T03:12:59;5.90;;;5.50;;
2257;SDS011;1136;51.574;7.706;2022-08-16T03:15:26;6.10;;;5.60;;
2257;SDS011;1136;51.574;7.706;2022-08-16T03:17:53;6.43;;;5.80;;
2257;SDS011;1136;51.574;7.706;2022-08-16T03:20:21;12.27;;;11.00;;
2257;SDS011;1136;51.574;7.706;2022-08-16T03:22:58;31.03;;;28.13;;
2257;SDS011;1136;51.574;7.706;2022-08-16T03:25:27;43.60;;;39.30;;
2257;SDS011;1136;51.574;7.706;2022-08-16T03:28:09;47.37;;;42.67;;
2257;SDS011;1136;51.574;7.706;2022-08-16T03:30:36;38.80;;;34.70;;
2257;SDS011;1136;51.574;7.706;2022-08-16T03:33:03;28.97;;;25.50;;
2257;SDS011;1136;51.574;7.706;2022-08-16T03:35:33;24.60;;;22.07;;
2257;SDS011;1136;51.574;7.706;2022-08-16T03:38:02;26.63;;;23.40;;
2257;SDS011;1136;51.574;7.706;2022-08-16T03:40:50;17.03;;;14.37;;
2257;SDS011;1136;51.574;7.706;2022-08-16T03:43:17;14.83;;;12.43;;
2257;SDS011;1136;51.574;7.706;2022-08-16T03:45:46;12.20;;;11.00;;
2257;SDS011;1136;51.574;7.706;2022-08-16T03:48:13;11.67;;;10.50;;
2257;SDS011;1136;51.574;7.706;2022-08-16T03:50:45;10.70;;;9.70;;
2257;SDS011;1136;51.574;7.706;2022-08-16T03:53:25;10.17;;;8.80;;
2257;SDS011;1136;51.574;7.706;2022-08-16T03:56:04;10.30;;;6.60;;
2257;SDS011;1136;51.574;7.706;2022-08-16T03:58:33;9.13;;;7.67;;
2257;SDS011;1136;51.574;7.706;2022-08-16T04:01:02;10.07;;;7.87;;
2257;SDS011;1136;51.574;7.706;2022-08-16T04:03:30;8.17;;;6.20;;
2257;SDS011;1136;51.574;7.706;2022-08-16T04:05:59;6.60;;;6.00;;
2257;SDS011;1136;51.574;7.706;2022-08-16T04:08:27;8.20;;;7.10;;
2257;SDS011;1136;51.574;7.706;2022-08-16T04:10:56;6.93;;;6.30;;
2257;SDS011;1136;51.574;7.706;2022-08-16T04:13:23;8.77;;;7.20;;
2257;SDS011;1136;51.574;7.706;2022-08-16T04:16:10;6.90;;;6.30;;
2257;SDS011;1136;51.574;7.706;2022-08-16T04:18:53;7.67;;;7.00;;
2257;SDS011;1136;51.574;7.706;2022-08-16T04:21:30;13.27;;;10.67;;
2257;SDS011;1136;51.574;7.706;2022-08-16T04:23:58;9.47;;;7.80;;
2257;SDS011;1136;51.574;7.706;2022-08-16T04:26:25;7.07;;;6.10;;
2257;SDS011;1136;51.574;7.706;2022-08-16T04:29:00;8.20;;;7.47;;
2257;SDS011;1136;51.574;7.706;2022-08-16T04:31:48;6.93;;;6.33;;
2257;SDS011;1136;51.574;7.706;2022-08-16T04:34:24;6.97;;;6.30;;
2257;SDS011;1136;51.574;7.706;2022-08-16T04:36:53;7.40;;;6.80;;
2257;SDS011;1136;51.574;7.706;2022-08-16T04:39:22;6.50;;;5.93;;
2257;SDS011;1136;51.574;7.706;2022-08-16T04:41:49;8.27;;;6.13;;
2257;SDS011;1136;51.574;7.706;2022-08-16T04:44:22;6.40;;;5.60;;
2257;SDS011;1136;51.574;7.706;2022-08-16T04:47:09;6.10;;;5.60;;
2257;SDS011;1136;51.574;7.706;2022-08-16T04:49:49;7.77;;;7.07;;
2257;SDS011;1136;51.574;7.706;2022-08-16T04:52:18;7.33;;;6.73;;
2257;SDS011;1136;51.574;7.706;2022-08-16T04:55:01;6.37;;;5.87;;
2257;SDS011;1136;51.574;7.706;2022-08-16T04:57:32;6.70;;;6.00;;
2257;SDS011;1136;51.574;7.706;2022-08-16T04:59:59;5.90;;;5.40;;
2257;SDS011;1136;51.574;7.706;2022-08-16T05:02:48;7.50;;;6.57;;
2257;SDS011;1136;51.574;7.706;2022-08-16T05:05:21;6.43;;;5.77;;
2257;SDS011;1136;51.574;7.706;2022-08-16T05:07:48;7.40;;;6.00;;
2257;SDS011;1136;51.574;7.706;2022-08-16T05:10:25;7.60;;;6.80;;
2257;SDS011;1136;51.574;7.706;2022-08-16T05:12:55;9.23;;;6.60;;
2257;SDS011;1136;51.574;7.706;2022-08-16T05:15:22;7.77;;;6.90;;
2257;SDS011;1136;51.574;7.706;2022-08-16T05:17:49;6.63;;;6.13;;
2257;SDS011;1136;51.574;7.706;2022-08-16T05:20:25;8.40;;;6.13;;
2257;SDS011;1136;51.574;7.706;2022-08-16T05:23:10;7.70;;;6.07;;
2257;SDS011;1136;51.574;7.706;2022-08-16T05:25:39;6.73;;;6.13;;
2257;SDS011;1136;51.574;7.706;2022-08-16T05:28:13;9.27;;;5.23;;
2257;SDS011;1136;51.574;7.706;2022-08-16T05:30:40;6.80;;;6.10;;
2257;SDS011;1136;51.574;7.706;2022-08-16T05:33:08;5.90;;;5.47;;
2257;SDS011;1136;51.574;7.706;2022-08-16T05:35:43;6.20;;;5.37;;
2257;SDS011;1136;51.574;7.706;2022-08-16T05:38:20;8.13;;;5.87;;
2257;SDS011;1136;51.574;7.706;2022-08-16T05:41:02;6.43;;;5.90;;
2257;SDS011;1136;51.574;7.706;2022-08-16T05:43:32;6.43;;;5.83;;
2257;SDS011;1136;51.574;7.706;2022-08-16T05:46:13;6.73;;;6.13;;
2257;SDS011;1136;51.574;7.706;2022-08-16T05:48:56;7.20;;;5.70;;
2257;SDS011;1136;51.574;7.706;2022-08-16T05:51:33;6.20;;;5.70;;
2257;SDS011;1136;51.574;7.706;2022-08-16T05:54:04;5.40;;;4.93;;
2257;SDS011;1136;51.574;7.706;2022-08-16T05:56:32;6.70;;;6.10;;
2257;SDS011;1136;51.574;7.706;2022-08-16T05:59:03;6.27;;;5.67;;
2257;SDS011;1136;51.574;7.706;2022-08-16T06:01:32;5.67;;;5.27;;
2257;SDS011;1136;51.574;7.706;2022-08-16T06:04:05;6.23;;;5.63;;
2257;SDS011;1136;51.574;7.706;2022-08-16T06:06:52;6.37;;;5.70;;
2257;SDS011;1136;51.574;7.706;2022-08-16T06:09:22;8.87;;;5.23;;
2257;SDS011;1136;51.574;7.706;2022-08-16T06:11:50;4.93;;;4.53;;
2257;SDS011;1136;51.574;7.706;2022-08-16T06:14:17;6.33;;;5.73;;
2257;SDS011;1136;51.574;7.706;2022-08-16T06:16:44;5.13;;;4.73;;
2257;SDS011;1136;51.574;7.706;2022-08-16T06:19:16;11.10;;;8.20;;
2257;SDS011;1136;51.574;7.706;2022-08-16T06:21:43;14.73;;;13.43;;
2257;SDS011;1136;51.574;7.706;2022-08-16T06:24:20;17.70;;;14.60;;
2257;SDS011;1136;51.574;7.706;2022-08-16T06:27:06;25.10;;;22.37;;
2257;SDS011;1136;51.574;7.706;2022-08-16T06:29:33;21.20;;;18.73;;
2257;SDS011;1136;51.574;7.706;2022-08-16T06:31:59;20.87;;;18.93;;
2257;SDS011;1136;51.574;7.706;2022-08-16T06:34:27;13.03;;;11.73;;
2257;SDS011;1136;51.574;7.706;2022-08-16T06:37:14;8.60;;;7.90;;
2257;SDS011;1136;51.574;7.706;2022-08-16T06:39:45;7.90;;;7.10;;
2257;SDS011;1136;51.574;7.706;2022-08-16T06:42:15;6.97;;;6.47;;
2257;SDS011;1136;51.574;7.706;2022-08-16T06:44:44;7.77;;;6.13;;
2257;SDS011;1136;51.574;7.706;2022-08-16T06:47:11;8.43;;;5.60;;
2257;SDS011;1136;51.574;7.706;2022-08-16T06:49:42;5.00;;;4.70;;
2257;SDS011;1136;51.574;7.706;2022-08-16T06:52:19;6.17;;;5.27;;
2257;SDS011;1136;51.574;7.706;2022-08-16T06:55:07;5.07;;;4.67;;
2257;SDS011;1136;51.574;7.706;2022-08-16T06:57:39;6.43;;;4.87;;
2257;SDS011;1136;51.574;7.706;2022-08-16T07:00:07;6.97;;;5.20;;
2257;SDS011;1136;51.574;7.706;2022-08-16T07:02:49;6.10;;;5.53;;
2257;SDS011;1136;51.574;7.706;2022-08-16T07:05:18;6.63;;;5.70;;
2257;SDS011;1136;51.574;7.706;2022-08-16T07:07:52;6.30;;;5.77;;
2257;SDS011;1136;51.574;7.706;2022-08-16T07:10:20;6.67;;;5.40;;
2257;SDS011;1136;51.574;7.706;2022-08-16T07:12:52;9.10;;;5.40;;
2257;SDS011;1136;51.574;7.706;2022-08-16T07:15:33;5.47;;;5.07;;
2257;SDS011;1136;51.574;7.706;2022-08-16T07:18:00;6.20;;;5.70;;
2257;SDS011;1136;51.574;7.706;2022-08-16T07:20:29;5.90;;;5.40;;
2257;SDS011;1136;51.574;7.706;2022-08-16T07:23:13;4.97;;;4.57;;
2257;SDS011;1136;51.574;7.706;2022-08-16T07:25:40;5.30;;;4.90;;
2257;SDS011;1136;51.574;7.706;2022-08-16T07:28:07;6.10;;;4.40;;
2257;SDS011;1136;51.574;7.706;2022-08-16T07:30:46;5.10;;;4.80;;
2257;SDS011;1136;51.574;7.706;2022-08-16T07:33:13;8.60;;;4.87;;
2257;SDS011;1136;51.574;7.706;2022-08-16T07:36:04;6.60;;;4.50;;
2257;SDS011;1136;51.574;7.706;2022-08-16T07:38:32;6.50;;;6.10;;
2257;SDS011;1136;51.574;7.706;2022-08-16T07:40:59;6.53;;;5.77;;
2257;SDS011;1136;51.574;7.706;2022-08-16T07:43:34;8.00;;;5.00;;
2257;SDS011;1136;51.574;7.706;2022-08-16T07:46:05;7.40;;;5.40;;
2257;SDS011;1136;51.574;7.706;2022-08-16T07:48:52;5.70;;;5.20;;
2257;SDS011;1136;51.574;7.706;2022-08-16T07:51:20;7.83;;;6.47;;
2257;SDS011;1136;51.574;7.706;2022-08-16T07:53:48;8.40;;;6.10;;
2257;SDS011;1136;51.574;7.706;2022-08-16T07:56:35;5.10;;;4.70;;
2257;SDS011;1136;51.574;7.706;2022-08-16T07:59:03;5.50;;;5.10;;
2257;SDS011;1136;51.574;7.706;2022-08-16T08:01:30;8.13;;;5.70;;
2257;SDS011;1136;51.574;7.706;2022-08-16T08:03:57;6.50;;;6.00;;
2257;SDS011;1136;51.574;7.706;2022-08-16T08:06:24;6.70;;;6.07;;
2257;SDS011;1136;51.574;7.706;2022-08-16T08:08:55;6.50;;;5.60;;
2257;SDS011;1136;51.574;7.706;2022-08-16T08:11:23;6.57;;;5.90;;
2257;SDS011;1136;51.574;7.706;2022-08-16T08:13:53;6.33;;;5.73;;
2257;SDS011;1136;51.574;7.706;2022-08-16T08:16:22;6.23;;;5.70;;
2257;SDS011;1136;51.574;7.706;2022-08-16T08:18:56;5.67;;;5.07;;
2257;SDS011;1136;51.574;7.706;2022-08-16T08:21:28;7.77;;;5.47;;
2257;SDS011;1136;51.574;7.706;2022-08-16T08:24:16;5.50;;;5.00;;
2257;SDS011;1136;51.574;7.706;2022-08-16T08:26:43;5.60;;;5.07;;
2257;SDS011;1136;51.574;7.706;2022-08-16T08:29:15;6.20;;;5.60;;
2257;SDS011;1136;51.574;7.706;2022-08-16T08:31:50;5.80;;;5.33;;
2257;SDS011;1136;51.574;7.706;2022-08-16T08:34:18;6.70;;;6.00;;
2257;SDS011;1136;51.574;7.706;2022-08-16T08:36:44;8.23;;;5.90;;
2257;SDS011;1136;51.574;7.706;2022-08-16T08:39:13;6.33;;;5.70;;
2257;SDS011;1136;51.574;7.706;2022-08-16T08:41:46;5.70;;;5.10;;
2257;SDS011;1136;51.574;7.706;2022-08-16T08:44:15;5.87;;;5.30;;
2257;SDS011;1136;51.574;7.706;2022-08-16T08:46:57;9.67;;;6.23;;
2257;SDS011;1136;51.574;7.706;2022-08-16T08:49:28;6.00;;;5.50;;
2257;SDS011;1136;51.574;7.706;2022-08-16T08:52:15;5.43;;;4.93;;
2257;SDS011;1136;51.574;7.706;2022-08-16T08:55:02;5.90;;;5.40;;
2257;SDS011;1136;51.574;7.706;2022-08-16T08:57:37;7.90;;;6.20;;
2257;SDS011;1136;51.574;7.706;2022-08-16T09:00:08;5.40;;;4.90;;
2257;SDS011;1136;51.574;7.706;2022-08-16T09:02:41;6.80;;;5.70;;
2257;SDS011;1136;51.574;7.706;2022-08-16T09:05:18;6.47;;;5.97;;
2257;SDS011;1136;51.574;7.706;2022-08-16T09:07:47;5.37;;;4.57;;
2257;SDS011;1136;51.574;7.706;2022-08-16T09:10:27;6.10;;;5.63;;
2257;SDS011;1136;51.574;7.706;2022-08-16T09:12:56;7.87;;;5.80;;
2257;SDS011;1136;51.574;7.706;2022-08-16T09:15:23;6.07;;;5.47;;
2257;SDS011;1136;51.574;7.706;2022-08-16T09:17:58;7.33;;;5.57;;
2257;SDS011;1136;51.574;7.706;2022-08-16T09:20:27;6.37;;;5.87;;
2257;SDS011;1136;51.574;7.706;2022-08-16T09:22:54;6.50;;;6.10;;
2257;SDS011;1136;51.574;7.706;2022-08-16T09:25:22;6.87;;;6.27;;
2257;SDS011;1136;51.574;7.706;2022-08-16T09:27:51;6.10;;;5.70;;
2257;SDS011;1136;51.574;7.706;2022-08-16T09:30:28;7.27;;;5.27;;
2257;SDS011;1136;51.574;7.706;2022-08-16T09:33:08;7.40;;;5.80;;
2257;SDS011;1136;51.574;7.706;2022-08-16T09:35:35;6.03;;;5.00;;
2257;SDS011;1136;51.574;7.706;2022-08-16T09:38:05;5.43;;;4.93;;
2257;SDS011;1136;51.574;7.706;2022-08-16T09:40:34;8.33;;;6.30;;
2257;SDS011;1136;51.574;7.706;2022-08-16T09:43:09;5.07;;;4.67;;
2257;SDS011;1136;51.574;7.706;2022-08-16T09:45:56;11.30;;;6.00;;
2257;SDS011;1136;51.574;7.706;2022-08-16T09:48:23;6.00;;;5.50;;
2257;SDS011;1136;51.574;7.706;2022-08-16T09:51:10;5.70;;;5.30;;
2257;SDS011;1136;51.574;7.706;2022-08-16T09:53:39;5.83;;;5.33;;
2257;SDS011;1136;51.574;7.706;2022-08-16T09:56:14;7.30;;;5.97;;
2257;SDS011;1136;51.574;7.706;2022-08-16T09:58:51;5.90;;;5.50;;
2257;SDS011;1136;51.574;7.706;2022-08-16T10:01:31;7.40;;;5.53;;
2257;SDS011;1136;51.574;7.706;2022-08-16T10:03:58;5.93;;;5.33;;
2257;SDS011;1136;51.574;7.706;2022-08-16T10:06:29;5.37;;;5.17;;
2257;SDS011;1136;51.574;7.706;2022-08-16T10:08:59;6.57;;;5.93;;
2257;SDS011;1136;51.574;7.706;2022-08-16T10:11:33;5.70;;;5.40;;
2257;SDS011;1136;51.574;7.706;2022-08-16T10:14:19;5.67;;;5.30;;
2257;SDS011;1136;51.574;7.706;2022-08-16T10:17:02;5.20;;;4.97;;
2257;SDS011;1136;51.574;7.706;2022-08-16T10:19:30;5.93;;;5.53;;
2257;SDS011;1136;51.574;7.706;2022-08-16T10:21:58;5.00;;;4.80;;
2257;SDS011;1136;51.574;7.706;2022-08-16T10:24:30;5.40;;;5.10;;
2257;SDS011;1136;51.574;7.706;2022-08-16T10:26:57;5.60;;;5.10;;
2257;SDS011;1136;51.574;7.706;2022-08-16T10:29:44;5.90;;;5.50;;
2257;SDS011;1136;51.574;7.706;2022-08-16T10:32:31;6.13;;;5.67;;
2257;SDS011;1136;51.574;7.706;2022-08-16T10:35:04;6.80;;;6.30;;
2257;SDS011;1136;51.574;7.706;2022-08-16T10:37:31;5.67;;;5.37;;
2257;SDS011;1136;51.574;7.706;2022-08-16T10:40:05;5.60;;;5.20;;
2257;SDS011;1136;51.574;7.706;2022-08-16T10:42:53;7.23;;;5.30;;
2257;SDS011;1136;51.574;7.706;2022-08-16T10:45:20;6.73;;;5.67;;
2257;SDS011;1136;51.574;7.706;2022-08-16T10:47:48;6.60;;;6.20;;
2257;SDS011;1136;51.574;7.706;2022-08-16T10:50:28;5.80;;;5.40;;
2257;SDS011;1136;51.574;7.706;2022-08-16T10:52:57;6.10;;;5.70;;
2257;SDS011;1136;51.574;7.706;2022-08-16T10:55:24;5.90;;;5.03;;
2257;SDS011;1136;51.574;7.706;2022-08-16T10:58:12;5.43;;;5.10;;
2257;SDS011;1136;51.574;7.706;2022-08-16T11:00:42;5.43;;;5.13;;
2257;SDS011;1136;51.574;7.706;2022-08-16T11:03:12;5.50;;;5.13;;
2257;SDS011;1136;51.574;7.706;2022-08-16T11:05:59;6.00;;;5.50;;
2257;SDS011;1136;51.574;7.706;2022-08-16T11:08:32;5.93;;;5.43;;
2257;SDS011;1136;51.574;7.706;2022-08-16T11:11:06;5.50;;;5.20;;
2257;SDS011;1136;51.574;7.706;2022-08-16T11:13:44;5.67;;;5.27;;
2257;SDS011;1136;51.574;7.706;2022-08-16T11:16:32;5.40;;;5.00;;
2257;SDS011;1136;51.574;7.706;2022-08-16T11:19:18;5.00;;;4.70;;
2257;SDS011;1136;51.574;7.706;2022-08-16T11:21:47;5.60;;;5.10;;
2257;SDS011;1136;51.574;7.706;2022-08-16T11:24:35;6.27;;;5.40;;
2257;SDS011;1136;51.574;7.706;2022-08-16T11:27:10;5.30;;;4.90;;
2257;SDS011;1136;51.574;7.706;2022-08-16T11:29:49;4.73;;;4.33;;
2257;SDS011;1136;51.574;7.706;2022-08-16T11:32:18;5.90;;;5.23;;
2257;SDS011;1136;51.574;7.706;2022-08-16T11:34:55;5.00;;;4.60;;
2257;SDS011;1136;51.574;7.706;2022-08-16T11:37:40;5.30;;;4.90;;
2257;SDS011;1136;51.574;7.706;2022-08-16T11:40:31;5.53;;;5.00;;
2257;SDS011;1136;51.574;7.706;2022-08-16T11:43:03;5.40;;;4.90;;
2257;SDS011;1136;51.574;7.706;2022-08-16T11:45:33;5.90;;;5.27;;
2257;SDS011;1136;51.574;7.706;2022-08-16T11:48:02;5.43;;;5.03;;
2257;SDS011;1136;51.574;7.706;2022-08-16T11:50:29;4.63;;;4.33;;
2257;SDS011;1136;51.574;7.706;2022-08-16T11:53:00;5.20;;;4.70;;
2257;SDS011;1136;51.574;7.706;2022-08-16T11:55:30;5.23;;;4.73;;
2257;SDS011;1136;51.574;7.706;2022-08-16T11:57:57;6.10;;;5.47;;
2257;SDS011;1136;51.574;7.706;2022-08-16T12:00:25;5.80;;;5.30;;
2257;SDS011;1136;51.574;7.706;2022-08-16T12:03:13;5.43;;;5.03;;
2257;SDS011;1136;51.574;7.706;2022-08-16T12:05:41;6.50;;;4.77;;
2257;SDS011;1136;51.574;7.706;2022-08-16T12:08:09;5.80;;;5.20;;
2257;SDS011;1136;51.574;7.706;2022-08-16T12:10:38;8.23;;;5.60;;
2257;SDS011;1136;51.574;7.706;2022-08-16T12:13:13;6.57;;;5.60;;
2257;SDS011;1136;51.574;7.706;2022-08-16T12:15:40;5.97;;;5.57;;
2257;SDS011;1136;51.574;7.706;2022-08-16T12:18:07;6.13;;;5.67;;
2257;SDS011;1136;51.574;7.706;2022-08-16T12:20:38;5.87;;;5.37;;
2257;SDS011;1136;51.574;7.706;2022-08-16T12:23:06;5.50;;;5.10;;
2257;SDS011;1136;51.574;7.706;2022-08-16T12:25:33;5.10;;;4.80;;
2257;SDS011;1136;51.574;7.706;2022-08-16T12:28:03;6.27;;;5.07;;
2257;SDS011;1136;51.574;7.706;2022-08-16T12:30:35;5.17;;;4.77;;
2257;SDS011;1136;51.574;7.706;2022-08-16T12:33:04;6.70;;;5.13;;
2257;SDS011;1136;51.574;7.706;2022-08-16T12:35:35;4.67;;;4.47;;
2257;SDS011;1136;51.574;7.706;2022-08-16T12:38:04;4.93;;;4.60;;
2257;SDS011;1136;51.574;7.706;2022-08-16T12:40:51;5.10;;;4.63;;
2257;SDS011;1136;51.574;7.706;2022-08-16T12:43:22;7.17;;;4.80;;
2257;SDS011;1136;51.574;7.706;2022-08-16T12:45:51;5.33;;;4.93;;
2257;SDS011;1136;51.574;7.706;2022-08-16T12:48:21;5.70;;;5.20;;
2257;SDS011;1136;51.574;7.706;2022-08-16T12:51:10;4.97;;;4.57;;
2257;SDS011;1136;51.574;7.706;2022-08-16T12:53:45;5.67;;;5.27;;
2257;SDS011;1136;51.574;7.706;2022-08-16T12:56:12;6.13;;;5.60;;
2257;SDS011;1136;51.574;7.706;2022-08-16T12:58:39;5.43;;;5.03;;
2257;SDS011;1136;51.574;7.706;2022-08-16T13:01:17;5.87;;;5.37;;
2257;SDS011;1136;51.574;7.706;2022-08-16T13:03:48;6.53;;;5.77;;
2257;SDS011;1136;51.574;7.706;2022-08-16T13:06:34;6.40;;;5.93;;
2257;SDS011;1136;51.574;7.706;2022-08-16T13:09:01;5.60;;;5.23;;
2257;SDS011;1136;51.574;7.706;2022-08-16T13:11:46;6.60;;;6.03;;
2257;SDS011;1136;51.574;7.706;2022-08-16T13:14:23;6.97;;;6.47;;
2257;SDS011;1136;51.574;7.706;2022-08-16T13:16:59;6.07;;;5.67;;
2257;SDS011;1136;51.574;7.706;2022-08-16T13:19:29;7.40;;;6.20;;
2257;SDS011;1136;51.574;7.706;2022-08-16T13:22:16;6.20;;;5.67;;
2257;SDS011;1136;51.574;7.706;2022-08-16T13:24:45;6.67;;;6.17;;
2257;SDS011;1136;51.574;7.706;2022-08-16T13:27:12;7.00;;;5.70;;
2257;SDS011;1136;51.574;7.706;2022-08-16T13:29:39;8.43;;;5.60;;
2257;SDS011;1136;51.574;7.706;2022-08-16T13:32:09;6.03;;;5.40;;
2257;SDS011;1136;51.574;7.706;2022-08-16T13:34:56;6.27;;;5.77;;
2257;SDS011;1136;51.574;7.706;2022-08-16T13:37:26;6.37;;;5.10;;
2257;SDS011;1136;51.574;7.706;2022-08-16T13:39:53;5.93;;;5.30;;
2257;SDS011;1136;51.574;7.706;2022-08-16T13:42:20;6.40;;;5.80;;
2257;SDS011;1136;51.574;7.706;2022-08-16T13:44:47;5.70;;;5.40;;
2257;SDS011;1136;51.574;7.706;2022-08-16T13:47:24;6.23;;;5.43;;
2257;SDS011;1136;51.574;7.706;2022-08-16T13:49:55;5.53;;;5.17;;
2257;SDS011;1136;51.574;7.706;2022-08-16T13:52:22;5.93;;;5.43;;
2257;SDS011;1136;51.574;7.706;2022-08-16T13:54:50;5.70;;;5.27;;
2257;SDS011;1136;51.574;7.706;2022-08-16T13:57:16;5.70;;;5.20;;
2257;SDS011;1136;51.574;7.706;2022-08-16T13:59:45;6.60;;;6.03;;
2257;SDS011;1136;51.574;7.706;2022-08-16T14:02:15;6.33;;;5.47;;
2257;SDS011;1136;51.574;7.706;2022-08-16T14:04:43;7.33;;;5.40;;
2257;SDS011;1136;51.574;7.706;2022-08-16T14:07:11;6.30;;;5.43;;
2257;SDS011;1136;51.574;7.706;2022-08-16T14:09:49;5.10;;;4.70;;
2257;SDS011;1136;51.574;7.706;2022-08-16T14:12:25;5.00;;;4.60;;
2257;SDS011;1136;51.574;7.706;2022-08-16T14:14:53;5.73;;;4.80;;
2257;SDS011;1136;51.574;7.706;2022-08-16T14:17:22;6.40;;;5.80;;
2257;SDS011;1136;51.574;7.706;2022-08-16T14:19:50;5.87;;;4.93;;
2257;SDS011;1136;51.574;7.706;2022-08-16T14:22:29;5.77;;;5.37;;
2257;SDS011;1136;51.574;7.706;2022-08-16T14:25:06;5.30;;;4.90;;
2257;SDS011;1136;51.574;7.706;2022-08-16T14:27:36;5.93;;;5.10;;
2257;SDS011;1136;51.574;7.706;2022-08-16T14:30:13;5.70;;;4.33;;
2257;SDS011;1136;51.574;7.706;2022-08-16T14:32:42;6.80;;;6.30;;
2257;SDS011;1136;51.574;7.706;2022-08-16T14:35:21;6.07;;;5.43;;
2257;SDS011;1136;51.574;7.706;2022-08-16T14:38:09;7.13;;;5.20;;
2257;SDS011;1136;51.574;7.706;2022-08-16T14:40:46;5.17;;;4.67;;
2257;SDS011;1136;51.574;7.706;2022-08-16T14:43:21;5.67;;;5.10;;
2257;SDS011;1136;51.574;7.706;2022-08-16T14:45:48;5.33;;;4.93;;
2257;SDS011;1136;51.574;7.706;2022-08-16T14:48:16;6.80;;;6.30;;
2257;SDS011;1136;51.574;7.706;2022-08-16T14:50:51;9.20;;;8.53;;
2257;SDS011;1136;51.574;7.706;2022-08-16T14:53:20;5.53;;;5.23;;
2257;SDS011;1136;51.574;7.706;2022-08-16T14:55:48;5.37;;;5.00;;
2257;SDS011;1136;51.574;7.706;2022-08-16T14:58:14;5.90;;;5.30;;
2257;SDS011;1136;51.574;7.706;2022-08-16T15:00:45;5.60;;;5.07;;
2257;SDS011;1136;51.574;7.706;2022-08-16T15:03:12;6.40;;;5.33;;
2257;SDS011;1136;51.574;7.706;2022-08-16T15:05:39;6.83;;;5.63;;
2257;SDS011;1136;51.574;7.706;2022-08-16T15:08:07;6.70;;;5.43;;
2257;SDS011;1136;51.574;7.706;2022-08-16T15:10:35;5.83;;;5.40;;
2257;SDS011;1136;51.574;7.706;2022-08-16T15:13:08;5.93;;;5.43;;
2257;SDS011;1136;51.574;7.706;2022-08-16T15:15:37;8.20;;;5.27;;
2257;SDS011;1136;51.574;7.706;2022-08-16T15:18:06;5.50;;;5.00;;
2257;SDS011;1136;51.574;7.706;2022-08-16T15:20:37;5.60;;;5.20;;
2257;SDS011;1136;51.574;7.706;2022-08-16T15:23:06;6.00;;;5.37;;
2257;SDS011;1136;51.574;7.706;2022-08-16T15:25:35;5.13;;;4.83;;
2257;SDS011;1136;51.574;7.706;2022-08-16T15:28:07;6.10;;;5.50;;
2257;SDS011;1136;51.574;7.706;2022-08-16T15:30:55;9.07;;;5.47;;
2257;SDS011;1136;51.574;7.706;2022-08-16T15:33:29;5.20;;;4.80;;
2257;SDS011;1136;51.574;7.706;2022-08-16T15:35:57;5.57;;;5.17;;
2257;SDS011;1136;51.574;7.706;2022-08-16T15:38:26;6.00;;;5.50;;
2257;SDS011;1136;51.574;7.706;2022-08-16T15:44:02;5.33;;;4.90;;
2257;SDS011;1136;51.574;7.706;2022-08-16T15:46:37;5.70;;;5.20;;
2257;SDS011;1136;51.574;7.706;2022-08-16T15:49:23;5.27;;;4.40;;
2257;SDS011;1136;51.574;7.706;2022-08-16T15:52:17;6.20;;;5.57;;
2257;SDS011;1136;51.574;7.706;2022-08-16T15:54:54;5.93;;;5.53;;
2257;SDS011;1136;51.574;7.706;2022-08-16T15:57:23;8.47;;;5.90;;
2257;SDS011;1136;51.574;7.706;2022-08-16T15:59:53;7.33;;;6.43;;
2257;SDS011;1136;51.574;7.706;2022-08-16T16:02:22;6.30;;;5.90;;
2257;SDS011;1136;51.574;7.706;2022-08-16T16:04:58;6.43;;;5.93;;
2257;SDS011;1136;51.574;7.706;2022-08-16T16:07:30;6.73;;;6.03;;